createdAt,value
2018-09-13T00:01:32.066Z,10.65
2018-09-13T00:03:40.186Z,11.35
2018-09-13T00:05:47.833Z,11.15
2018-09-13T00:07:54.219Z,11.57
2018-09-13T00:10:01.089Z,12.30
2018-09-13T00:12:07.002Z,11.48
2018-09-13T00:14:14.501Z,11.18
2018-09-13T00:16:21.057Z,10.40
2018-09-13T00:18:28.680Z,10.13
2018-09-13T00:20:35.005Z,10.55
2018-09-13T00:22:41.772Z,11.30
2018-09-13T00:24:50.223Z,10.95
2018-09-13T00:26:57.130Z,10.17
2018-09-13T00:29:05.350Z,10.57
2018-09-13T00:31:15.185Z,10.90
2018-09-13T00:33:21.431Z,11.80
2018-09-13T00:35:31.013Z,10.48
2018-09-13T00:37:37.618Z,10.55
2018-09-13T00:39:46.125Z,10.23
2018-09-13T00:41:52.273Z,11.25
2018-09-13T00:44:01.092Z,12.97
2018-09-13T00:46:06.657Z,10.88
2018-09-13T00:48:13.273Z,11.53
2018-09-13T00:50:17.746Z,11.57
2018-09-13T00:52:23.277Z,11.33
2018-09-13T00:54:29.234Z,11.15
2018-09-13T00:56:35.239Z,11.00
2018-09-13T00:58:43.635Z,10.87
2018-09-13T01:00:50.421Z,10.90
2018-09-13T01:02:57.707Z,12.00
2018-09-13T01:05:02.528Z,12.90
2018-09-13T01:07:09.106Z,11.43
2018-09-13T01:09:17.287Z,11.43
2018-09-13T01:11:25.115Z,11.07
2018-09-13T01:13:31.565Z,10.38
2018-09-13T01:15:39.015Z,11.12
2018-09-13T01:17:46.027Z,9.30
2018-09-13T01:19:54.231Z,9.63
2018-09-13T01:22:01.153Z,8.17
2018-09-13T01:24:05.690Z,7.57
2018-09-13T01:26:12.845Z,7.53
2018-09-13T01:28:18.982Z,7.10
2018-09-13T01:30:25.859Z,9.67
2018-09-13T01:32:30.647Z,8.20
2018-09-13T01:34:36.726Z,7.87
2018-09-13T01:36:43.271Z,8.17
2018-09-13T01:38:51.086Z,6.97
2018-09-13T01:40:55.738Z,8.35
2018-09-13T01:43:02.467Z,6.40
2018-09-13T01:45:11.204Z,6.37
2018-09-13T01:47:19.178Z,7.27
2018-09-13T01:49:25.740Z,6.87
2018-09-13T01:51:35.367Z,7.60
2018-09-13T01:53:43.826Z,7.20
2018-09-13T01:55:49.015Z,7.58
2018-09-13T01:57:56.262Z,8.00
2018-09-13T02:00:01.917Z,9.17
2018-09-13T02:02:08.458Z,7.37
2018-09-13T02:04:14.878Z,7.67
2018-09-13T02:06:20.869Z,7.75
2018-09-13T02:08:27.145Z,7.20
2018-09-13T02:10:32.638Z,7.83
2018-09-13T02:12:39.400Z,9.37
2018-09-13T02:14:44.674Z,8.15
2018-09-13T02:16:50.995Z,6.20
2018-09-13T02:18:58.389Z,7.00
2018-09-13T02:21:03.254Z,6.53
2018-09-13T02:23:09.507Z,7.07
2018-09-13T02:25:19.153Z,6.00
2018-09-13T02:27:25.765Z,5.57
2018-09-13T02:29:33.201Z,5.87
2018-09-13T02:31:41.992Z,5.93
2018-09-13T02:33:48.146Z,6.40
2018-09-13T02:35:55.764Z,6.17
2018-09-13T02:38:01.782Z,5.43
2018-09-13T02:40:07.186Z,6.47
2018-09-13T02:42:12.474Z,5.33
2018-09-13T02:44:17.681Z,5.47
2018-09-13T02:46:25.078Z,7.37
2018-09-13T02:48:31.172Z,4.90
2018-09-13T02:50:38.426Z,4.10
2018-09-13T02:52:44.424Z,4.10
2018-09-13T02:54:49.781Z,4.40
2018-09-13T02:56:57.613Z,4.23
2018-09-13T02:59:06.564Z,3.75
2018-09-13T03:01:15.591Z,3.83
2018-09-13T03:03:21.531Z,4.53
2018-09-13T03:05:27.748Z,4.00
2018-09-13T03:07:33.354Z,3.77
2018-09-13T03:09:41.198Z,3.50
2018-09-13T03:11:45.657Z,3.87
2018-09-13T03:13:53.245Z,3.05
2018-09-13T03:16:02.509Z,3.40
2018-09-13T03:18:11.631Z,3.12
2018-09-13T03:20:18.039Z,3.53
2018-09-13T03:22:22.675Z,4.65
2018-09-13T03:24:29.846Z,4.03
2018-09-13T03:26:35.908Z,3.70
2018-09-13T03:28:43.782Z,3.80
2018-09-13T03:30:50.370Z,3.77
2018-09-13T03:32:56.252Z,4.23
2018-09-13T03:35:02.468Z,4.00
2018-09-13T03:37:09.548Z,4.10
2018-09-13T03:39:17.609Z,5.10
2018-09-13T03:41:24.825Z,4.07
2018-09-13T03:43:32.048Z,3.73
2018-09-13T03:45:39.402Z,4.67
2018-09-13T03:47:46.675Z,4.60
2018-09-13T03:49:51.254Z,3.90
2018-09-13T03:51:56.667Z,3.30
2018-09-13T03:54:01.305Z,4.60
2018-09-13T03:56:06.305Z,3.50
2018-09-13T03:58:13.938Z,4.43
2018-09-13T04:00:19.489Z,5.00
2018-09-13T04:02:26.077Z,4.67
2018-09-13T04:04:32.231Z,5.22
2018-09-13T04:06:37.450Z,3.92
2018-09-13T04:08:42.115Z,3.45
2018-09-13T04:10:48.578Z,3.03
2018-09-13T04:12:54.761Z,3.57
2018-09-13T04:15:01.000Z,2.70
2018-09-13T04:17:07.868Z,2.80
2018-09-13T04:19:15.803Z,2.90
2018-09-13T04:21:23.976Z,2.50
2018-09-13T04:23:31.699Z,2.50
2018-09-13T04:25:41.220Z,2.90
2018-09-13T04:27:47.641Z,2.50
2018-09-13T04:29:53.442Z,2.65
2018-09-13T04:32:03.631Z,2.80
2018-09-13T04:34:10.116Z,3.02
2018-09-13T04:36:15.431Z,2.73
2018-09-13T04:38:21.875Z,3.50
2018-09-13T04:40:29.869Z,4.17
2018-09-13T04:42:35.890Z,3.70
2018-09-13T04:44:44.109Z,3.20
2018-09-13T04:46:52.251Z,3.02
2018-09-13T04:49:01.220Z,2.90
2018-09-13T04:51:06.507Z,3.25
2018-09-13T04:53:13.282Z,3.10
2018-09-13T04:55:17.757Z,2.93
2018-09-13T04:57:26.553Z,3.00
2018-09-13T04:59:32.997Z,2.67
2018-09-13T05:01:39.584Z,2.73
2018-09-13T05:03:45.263Z,2.70
2018-09-13T05:05:53.481Z,2.62
2018-09-13T05:08:00.103Z,2.57
2018-09-13T05:10:06.702Z,2.37
2018-09-13T05:12:12.957Z,3.73
2018-09-13T05:14:20.434Z,3.27
2018-09-13T05:16:28.020Z,3.20
2018-09-13T05:18:36.453Z,5.10
2018-09-13T05:20:45.895Z,3.10
2018-09-13T05:22:54.513Z,3.62
2018-09-13T05:25:04.594Z,4.13
2018-09-13T05:27:13.015Z,4.10
2018-09-13T05:29:17.644Z,5.27
2018-09-13T05:31:24.582Z,5.47
2018-09-13T05:33:34.092Z,6.20
2018-09-13T05:35:39.748Z,7.47
2018-09-13T05:37:48.078Z,7.50
2018-09-13T05:39:57.173Z,9.98
2018-09-13T05:42:06.076Z,6.13
2018-09-13T05:44:14.037Z,6.67
2018-09-13T05:46:20.850Z,5.63
2018-09-13T05:48:27.071Z,6.00
2018-09-13T05:50:34.412Z,6.15
2018-09-13T05:52:39.620Z,5.83
2018-09-13T05:54:45.624Z,5.60
2018-09-13T05:56:52.890Z,5.50
2018-09-13T05:58:59.713Z,5.70
2018-09-13T06:01:05.607Z,4.63
2018-09-13T06:03:15.173Z,4.45
2018-09-13T06:05:22.162Z,6.23
2018-09-13T06:07:29.509Z,4.70
2018-09-13T06:09:35.869Z,4.42
2018-09-13T06:11:42.964Z,4.80
2018-09-13T06:13:53.007Z,4.37
2018-09-13T06:16:02.120Z,3.57
2018-09-13T06:18:09.042Z,4.23
2018-09-13T06:20:14.174Z,4.30
2018-09-13T06:22:20.000Z,4.10
2018-09-13T06:24:27.248Z,4.72
2018-09-13T06:26:36.281Z,3.67
2018-09-13T06:28:44.817Z,5.53
2018-09-13T06:30:56.246Z,3.30
2018-09-13T06:33:00.822Z,4.40
2018-09-13T06:35:05.283Z,3.72
2018-09-13T06:37:09.730Z,4.07
2018-09-13T06:39:14.318Z,4.10
2018-09-13T06:41:19.095Z,4.33
2018-09-13T06:43:24.577Z,4.22
2018-09-13T06:45:33.404Z,4.03
2018-09-13T06:47:44.032Z,3.97
2018-09-13T06:49:55.133Z,4.67
2018-09-13T06:52:02.064Z,3.77
2018-09-13T06:54:07.943Z,3.97
2018-09-13T06:56:14.408Z,3.62
2018-09-13T06:58:25.657Z,3.90
2018-09-13T07:00:35.936Z,4.17
2018-09-13T07:02:45.077Z,4.13
2018-09-13T07:04:56.037Z,3.87
2018-09-13T07:07:06.696Z,4.17
2018-09-13T07:09:16.965Z,4.07
2018-09-13T07:11:28.200Z,3.73
2018-09-13T07:13:41.023Z,3.80
2018-09-13T07:15:53.402Z,3.90
2018-09-13T07:18:03.592Z,4.47
2018-09-13T07:20:15.060Z,4.62
2018-09-13T07:22:26.589Z,4.40
2018-09-13T07:24:34.490Z,4.30
2018-09-13T07:26:42.446Z,3.70
2018-09-13T07:28:50.257Z,3.45
2018-09-13T07:30:57.129Z,3.90
2018-09-13T07:33:05.438Z,3.83
2018-09-13T07:35:12.792Z,3.90
2018-09-13T07:37:20.207Z,4.08
2018-09-13T07:39:32.666Z,5.93
2018-09-13T07:41:41.020Z,3.67
2018-09-13T07:43:48.997Z,5.12
2018-09-13T07:45:59.655Z,3.90
2018-09-13T07:48:09.706Z,3.45
2018-09-13T07:50:21.564Z,3.60
2018-09-13T07:52:31.979Z,3.00
2018-09-13T07:54:41.793Z,2.87
2018-09-13T07:56:51.931Z,3.00
2018-09-13T07:59:01.369Z,3.40
2018-09-13T08:01:11.813Z,2.95
2018-09-13T08:03:21.941Z,3.10
2018-09-13T08:05:31.878Z,2.83
2018-09-13T08:07:41.255Z,2.97
2018-09-13T08:09:52.085Z,2.53
2018-09-13T08:12:02.366Z,2.50
2018-09-13T08:14:08.692Z,2.40
2018-09-13T08:16:16.053Z,2.90
2018-09-13T08:18:25.299Z,2.73
2018-09-13T08:20:32.674Z,5.10
2018-09-13T08:22:43.436Z,2.80
2018-09-13T08:24:56.504Z,3.37
2018-09-13T08:27:06.303Z,3.77
2018-09-13T08:29:15.325Z,3.50
2018-09-13T08:31:26.754Z,2.70
2018-09-13T08:33:40.232Z,2.62
2018-09-13T08:35:50.928Z,2.87
2018-09-13T08:38:00.131Z,2.70
2018-09-13T08:40:10.271Z,4.35
2018-09-13T08:42:21.394Z,2.90
2018-09-13T08:44:32.310Z,3.70
2018-09-13T08:46:42.893Z,7.92
2018-09-13T08:48:54.805Z,4.40
2018-09-13T08:51:04.738Z,2.50
2018-09-13T08:53:17.037Z,2.95
2018-09-13T08:55:27.919Z,3.20
2018-09-13T08:57:42.776Z,3.22
2018-09-13T08:59:53.737Z,3.10
2018-09-13T09:02:04.626Z,4.33
2018-09-13T09:04:18.513Z,2.80
2018-09-13T09:06:30.534Z,4.87
2018-09-13T09:08:45.390Z,3.70
2018-09-13T09:10:56.156Z,3.85
2018-09-13T09:13:09.476Z,3.53
2018-09-13T09:15:18.016Z,3.23
2018-09-13T09:17:29.801Z,4.47
2018-09-13T09:19:41.408Z,3.15
2018-09-13T09:21:53.708Z,3.30
2018-09-13T09:24:05.845Z,3.00
2018-09-13T09:26:17.115Z,4.63
2018-09-13T09:28:30.564Z,3.33
2018-09-13T09:30:42.779Z,3.05
2018-09-13T09:32:51.278Z,3.67
2018-09-13T09:35:01.379Z,3.77
2018-09-13T09:37:09.002Z,3.13
2018-09-13T09:39:18.666Z,3.85
2018-09-13T09:41:30.246Z,3.40
2018-09-13T09:43:40.233Z,3.50
2018-09-13T09:45:49.859Z,3.23
2018-09-13T09:47:59.742Z,2.80
2018-09-13T09:50:10.674Z,3.13
2018-09-13T09:52:19.594Z,3.03
2018-09-13T09:54:31.857Z,3.83
2018-09-13T09:56:43.278Z,3.17
2018-09-13T09:58:53.721Z,4.37
2018-09-13T10:01:08.725Z,3.43
2018-09-13T10:03:16.851Z,3.10
2018-09-13T10:05:23.906Z,3.33
2018-09-13T10:07:29.342Z,2.93
2018-09-13T10:09:33.963Z,3.57
2018-09-13T10:11:38.350Z,5.20
2018-09-13T10:13:42.846Z,3.00
2018-09-13T10:16:51.421Z,6.80
2018-09-13T10:19:01.223Z,3.90
2018-09-13T10:21:11.547Z,3.60
2018-09-13T10:23:21.363Z,4.00
2018-09-13T10:25:31.098Z,4.43
2018-09-13T10:27:40.952Z,4.40
2018-09-13T10:29:50.757Z,3.80
2018-09-13T10:32:00.686Z,3.77
2018-09-13T10:34:10.675Z,4.80
2018-09-13T10:36:20.197Z,4.23
2018-09-13T10:38:32.657Z,4.80
2018-09-13T10:40:44.489Z,4.65
2018-09-13T10:42:55.121Z,5.20
2018-09-13T10:45:05.085Z,5.42
2018-09-13T10:48:15.057Z,5.05
2018-09-13T10:50:26.160Z,5.17
2018-09-13T10:52:38.283Z,5.00
2018-09-13T10:54:45.598Z,5.65
2018-09-13T10:56:53.411Z,4.83
2018-09-13T10:59:01.600Z,5.53
2018-09-13T11:01:07.339Z,5.30
2018-09-13T11:03:13.314Z,4.97
2018-09-13T11:05:21.605Z,6.00
2018-09-13T11:07:26.706Z,5.70
2018-09-13T11:09:36.463Z,4.70
2018-09-13T11:11:44.236Z,4.40
2018-09-13T11:13:55.437Z,5.70
2018-09-13T11:16:00.749Z,4.47
2018-09-13T11:18:07.534Z,4.40
2018-09-13T11:20:15.814Z,3.93
2018-09-13T11:22:20.354Z,4.03
2018-09-13T11:24:26.339Z,3.90
2018-09-13T11:26:33.184Z,4.37
2018-09-13T11:28:40.728Z,4.90
2018-09-13T11:30:46.011Z,4.57
2018-09-13T11:32:52.473Z,4.43
2018-09-13T11:35:00.517Z,4.53
2018-09-13T11:37:06.831Z,4.47
2018-09-13T11:39:13.800Z,4.90
2018-09-13T11:41:22.413Z,4.67
2018-09-13T11:43:30.332Z,5.00
2018-09-13T11:45:36.664Z,4.85
2018-09-13T11:47:43.751Z,4.90
2018-09-13T11:49:52.341Z,5.40
2018-09-13T11:52:00.521Z,5.30
2018-09-13T11:54:08.260Z,5.50
2018-09-13T11:56:14.282Z,6.67
2018-09-13T11:58:23.479Z,6.00
2018-09-13T12:00:30.258Z,6.87
2018-09-13T12:02:36.787Z,5.95
2018-09-13T12:04:43.814Z,6.23
2018-09-13T12:06:49.070Z,7.23
2018-09-13T12:08:56.167Z,7.55
2018-09-13T12:11:07.110Z,6.23
2018-09-13T12:13:14.483Z,6.43
2018-09-13T12:15:20.987Z,6.10
2018-09-13T12:17:29.793Z,7.17
2018-09-13T12:19:36.811Z,6.53
2018-09-13T12:21:46.769Z,7.10
2018-09-13T12:23:54.502Z,8.43
2018-09-13T12:26:01.291Z,8.53
2018-09-13T12:28:07.347Z,8.57
2018-09-13T12:30:13.783Z,9.13
2018-09-13T12:32:19.248Z,8.25
2018-09-13T12:34:24.876Z,8.03
2018-09-13T12:36:35.996Z,8.95
2018-09-13T12:38:40.947Z,9.90
2018-09-13T12:40:47.630Z,9.00
2018-09-13T12:42:53.213Z,9.67
2018-09-13T12:44:59.767Z,9.90
2018-09-13T12:47:08.549Z,11.73
2018-09-13T12:49:15.076Z,9.77
2018-09-13T12:51:19.605Z,8.78
2018-09-13T12:53:27.060Z,10.38
2018-09-13T12:55:39.445Z,8.48
2018-09-13T12:57:47.313Z,10.07
2018-09-13T12:59:51.846Z,8.63
2018-09-13T13:01:58.213Z,9.30
2018-09-13T13:04:05.559Z,10.93
2018-09-13T13:06:12.252Z,9.80
2018-09-13T13:08:18.275Z,9.87
2018-09-13T13:10:25.147Z,9.15
2018-09-13T13:12:31.984Z,9.43
2018-09-13T13:14:39.986Z,9.98
2018-09-13T13:16:49.212Z,9.95
2018-09-13T13:18:57.726Z,9.00
2018-09-13T13:21:03.583Z,8.45
2018-09-13T13:23:11.131Z,8.63
2018-09-13T13:25:17.803Z,7.90
2018-09-13T13:27:23.208Z,8.47
2018-09-13T13:29:30.751Z,13.43
2018-09-13T13:31:35.600Z,8.27
2018-09-13T13:33:40.531Z,9.83
2018-09-13T13:35:45.269Z,8.53
2018-09-13T13:37:51.043Z,9.43
2018-09-13T13:39:59.083Z,10.87
2018-09-13T13:42:06.005Z,9.23
2018-09-13T13:44:14.171Z,11.05
2018-09-13T13:46:19.736Z,10.23
2018-09-13T13:48:28.094Z,10.93
2018-09-13T13:50:37.510Z,9.80
2018-09-13T13:52:42.469Z,10.80
2018-09-13T13:54:50.217Z,10.63
2018-09-13T13:56:56.426Z,9.90
2018-09-13T13:59:02.769Z,11.07
2018-09-13T14:01:10.814Z,10.30
2018-09-13T14:03:15.675Z,9.47
2018-09-13T14:05:21.034Z,9.33
2018-09-13T14:07:28.338Z,9.28
2018-09-13T14:09:35.690Z,7.77
2018-09-13T14:11:44.070Z,8.17
2018-09-13T14:13:49.154Z,9.88
2018-09-13T14:15:54.066Z,6.83
2018-09-13T14:17:58.638Z,6.72
2018-09-13T14:20:06.226Z,6.83
2018-09-13T14:22:12.006Z,11.20
2018-09-13T14:24:16.671Z,7.77
2018-09-13T14:26:23.043Z,5.95
2018-09-13T14:28:27.719Z,7.30
2018-09-13T14:30:33.953Z,6.37
2018-09-13T14:32:38.703Z,6.40
2018-09-13T14:34:48.211Z,7.42
2018-09-13T14:36:53.727Z,6.63
2018-09-13T14:39:01.039Z,5.10
2018-09-13T14:41:08.999Z,6.00
2018-09-13T14:43:18.345Z,6.30
2018-09-13T14:45:25.981Z,5.42
2018-09-13T14:47:32.583Z,5.17
2018-09-13T14:49:39.333Z,5.20
2018-09-13T14:51:44.797Z,5.73
2018-09-13T14:53:52.318Z,5.50
2018-09-13T14:55:59.347Z,6.87
2018-09-13T14:58:07.084Z,6.92
2018-09-13T15:00:15.156Z,5.67
2018-09-13T15:02:21.182Z,7.83
2018-09-13T15:04:29.854Z,7.45
2018-09-13T15:06:36.520Z,6.72
2018-09-13T15:08:42.134Z,6.28
2018-09-13T15:10:51.203Z,7.08
2018-09-13T15:12:56.446Z,6.13
2018-09-13T15:15:03.074Z,6.57
2018-09-13T15:17:07.811Z,6.90
2018-09-13T15:19:14.595Z,7.33
2018-09-13T15:21:19.762Z,5.87
2018-09-13T15:23:24.528Z,5.65
2018-09-13T15:25:30.594Z,7.35
2018-09-13T15:27:36.162Z,7.80
2018-09-13T15:29:41.815Z,6.17
2018-09-13T15:31:48.174Z,5.37
2018-09-13T15:33:54.619Z,6.27
2018-09-13T15:36:03.640Z,5.65
2018-09-13T15:38:08.388Z,6.33
2018-09-13T15:40:14.505Z,5.90
2018-09-13T15:42:19.839Z,5.58
2018-09-13T15:44:26.987Z,6.00
2018-09-13T15:46:32.823Z,6.57
2018-09-13T15:48:37.333Z,6.23
2018-09-13T15:50:44.589Z,5.45
2018-09-13T15:52:50.856Z,6.40
2018-09-13T15:54:57.538Z,6.53
2018-09-13T15:57:02.947Z,6.90
2018-09-13T15:59:08.883Z,7.07
2018-09-13T16:01:14.743Z,5.10
2018-09-13T16:03:23.096Z,7.00
2018-09-13T16:05:27.842Z,5.53
2018-09-13T16:07:32.263Z,5.50
2018-09-13T16:09:39.659Z,7.87
2018-09-13T16:11:46.559Z,7.30
2018-09-13T16:13:52.904Z,5.55
2018-09-13T16:15:58.534Z,5.93
2018-09-13T16:18:04.723Z,6.13
2018-09-13T16:20:11.040Z,6.70
2018-09-13T16:22:19.343Z,6.13
2018-09-13T16:24:28.471Z,5.90
2018-09-13T16:26:37.745Z,6.57
2018-09-13T16:28:47.152Z,6.73
2018-09-13T16:30:55.710Z,5.80
2018-09-13T16:33:03.301Z,8.03
2018-09-13T16:35:09.722Z,6.10
2018-09-13T16:37:27.901Z,6.80
2018-09-13T16:39:40.640Z,8.37
2018-09-13T16:41:53.064Z,6.07
2018-09-13T16:44:00.058Z,5.90
2018-09-13T16:46:06.797Z,6.93
2018-09-13T16:48:22.065Z,6.10
2018-09-13T16:50:37.463Z,7.23
2018-09-13T16:52:52.971Z,7.05
2018-09-13T16:55:02.624Z,7.13
2018-09-13T16:57:07.951Z,5.50
2018-09-13T16:59:14.651Z,6.00
2018-09-13T17:01:21.482Z,7.97
2018-09-13T17:03:27.865Z,7.17
2018-09-13T17:05:32.316Z,5.73
2018-09-13T17:07:36.912Z,6.03
2018-09-13T17:09:41.565Z,6.93
2018-09-13T17:11:48.033Z,6.25
2018-09-13T17:13:56.977Z,5.73
2018-09-13T17:16:08.867Z,5.43
2018-09-13T17:18:17.191Z,5.55
2018-09-13T17:20:21.737Z,5.90
2018-09-13T17:22:27.723Z,6.33
2018-09-13T17:24:34.932Z,7.75
2018-09-13T17:26:41.320Z,6.27
2018-09-13T17:28:47.467Z,6.35
2018-09-13T17:30:53.868Z,7.60
2018-09-13T17:33:03.746Z,5.77
2018-09-13T17:35:11.672Z,8.10
2018-09-13T17:37:17.685Z,6.97
2018-09-13T17:39:24.239Z,6.72
2018-09-13T17:41:31.489Z,7.12
2018-09-13T17:43:38.862Z,6.10
2018-09-13T17:45:47.163Z,6.83
2018-09-13T17:47:53.744Z,6.20
2018-09-13T17:49:58.758Z,8.67
2018-09-13T17:52:06.269Z,6.33
2018-09-13T17:54:12.018Z,6.03
2018-09-13T17:56:19.213Z,6.63
2018-09-13T17:58:26.766Z,7.10
2018-09-13T18:00:32.804Z,7.15
2018-09-13T18:02:38.411Z,6.13
2018-09-13T18:04:45.997Z,6.53
2018-09-13T18:06:52.488Z,7.62
2018-09-13T18:08:58.462Z,5.90
2018-09-13T18:11:06.183Z,5.80
2018-09-13T18:13:14.552Z,5.53
2018-09-13T18:15:24.078Z,7.53
2018-09-13T18:17:30.555Z,6.28
2018-09-13T18:19:36.287Z,6.17
2018-09-13T18:21:41.315Z,8.13
2018-09-13T18:23:51.305Z,4.90
2018-09-13T18:25:58.615Z,7.50
2018-09-13T18:28:05.949Z,6.57
2018-09-13T18:30:13.662Z,7.50
2018-09-13T18:32:22.080Z,6.57
2018-09-13T18:34:29.292Z,5.53
2018-09-13T18:36:33.952Z,5.80
2018-09-13T18:38:39.191Z,5.50
2018-09-13T18:40:44.081Z,5.50
2018-09-13T18:42:50.188Z,7.55
2018-09-13T18:44:55.620Z,6.63
2018-09-13T18:47:03.476Z,6.50
2018-09-13T18:49:08.881Z,6.13
2018-09-13T18:51:15.642Z,5.75
2018-09-13T18:53:22.923Z,6.93
2018-09-13T18:55:28.632Z,7.53
2018-09-13T18:57:35.211Z,8.40
2018-09-13T18:59:42.218Z,7.50
2018-09-13T19:01:49.002Z,6.03
2018-09-13T19:03:57.810Z,6.37
2018-09-13T19:06:05.622Z,5.65
2018-09-13T19:08:15.479Z,8.05
2018-09-13T19:10:24.865Z,7.53
2018-09-13T19:12:34.684Z,10.95
2018-09-13T19:14:43.359Z,5.43
2018-09-13T19:16:49.962Z,6.45
2018-09-13T19:18:57.971Z,6.87
2018-09-13T19:21:05.588Z,6.97
2018-09-13T19:23:17.690Z,6.43
2018-09-13T19:25:25.272Z,5.97
2018-09-13T19:27:34.214Z,7.27
2018-09-13T19:29:38.920Z,8.10
2018-09-13T19:31:43.431Z,6.20
2018-09-13T19:33:49.830Z,6.87
2018-09-13T19:35:58.645Z,6.40
2018-09-13T19:38:07.042Z,6.53
2018-09-13T19:40:12.826Z,5.73
2018-09-13T19:42:19.345Z,6.47
2018-09-13T19:44:27.446Z,7.43
2018-09-13T19:46:33.281Z,5.87
2018-09-13T19:48:41.253Z,5.80
2018-09-13T19:50:50.821Z,5.90
2018-09-13T19:53:00.896Z,6.63
2018-09-13T19:55:07.771Z,7.37
2018-09-13T19:57:12.963Z,7.43
2018-09-13T19:59:17.428Z,7.80
2018-09-13T20:01:23.568Z,8.75
2018-09-13T20:03:28.531Z,6.57
2018-09-13T20:05:33.035Z,6.55
2018-09-13T20:07:40.099Z,8.37
2018-09-13T20:09:44.511Z,8.03
2018-09-13T20:11:54.838Z,6.42
2018-09-13T20:14:04.191Z,7.20
2018-09-13T20:16:08.595Z,8.00
2018-09-13T20:18:18.202Z,8.60
2018-09-13T20:20:27.375Z,7.17
2018-09-13T20:22:37.879Z,7.45
2018-09-13T20:24:44.546Z,8.13
2018-09-13T20:26:53.329Z,7.72
2018-09-13T20:28:57.947Z,8.57
2018-09-13T20:31:02.357Z,7.25
2018-09-13T20:33:10.842Z,7.30
2018-09-13T20:35:20.429Z,7.60
2018-09-13T20:37:27.347Z,10.57
2018-09-13T20:39:31.810Z,8.25
2018-09-13T20:41:41.951Z,8.10
2018-09-13T20:43:51.676Z,7.57
2018-09-13T20:46:01.322Z,9.60
2018-09-13T20:48:08.792Z,8.37
2018-09-13T20:50:16.242Z,7.58
2018-09-13T20:52:22.377Z,7.73
2018-09-13T20:54:29.595Z,8.13
2018-09-13T20:56:36.306Z,9.07
2018-09-13T20:58:43.357Z,9.43
2018-09-13T21:00:52.737Z,7.28
2018-09-13T21:03:01.965Z,10.23
2018-09-13T21:05:09.858Z,9.35
2018-09-13T21:07:15.674Z,9.00
2018-09-13T21:09:20.375Z,9.83
2018-09-13T21:11:24.794Z,9.50
2018-09-13T21:13:29.758Z,8.10
2018-09-13T21:15:36.575Z,8.13
2018-09-13T21:17:40.992Z,8.67
2018-09-13T21:19:45.435Z,11.07
2018-09-13T21:21:50.379Z,10.37
2018-09-13T21:23:54.979Z,10.03
2018-09-13T21:25:59.428Z,11.37
2018-09-13T21:28:04.519Z,8.75
2018-09-13T21:30:09.643Z,8.90
2018-09-13T21:32:14.140Z,11.60
2018-09-13T21:34:18.787Z,12.37
2018-09-13T21:36:23.286Z,10.13
2018-09-13T21:38:27.722Z,10.20
2018-09-13T21:40:32.183Z,9.27
2018-09-13T21:42:37.315Z,11.13
2018-09-13T21:44:44.687Z,12.67
2018-09-13T21:46:53.604Z,11.57
2018-09-13T21:48:59.039Z,10.43
2018-09-13T21:51:08.725Z,10.80
2018-09-13T21:53:16.313Z,9.90
2018-09-13T21:55:23.995Z,9.40
2018-09-13T21:57:30.723Z,11.68
2018-09-13T21:59:39.646Z,11.68
2018-09-13T22:01:49.421Z,9.80
2018-09-13T22:04:01.098Z,10.70
2018-09-13T22:06:07.019Z,10.18
2018-09-13T22:08:14.192Z,8.90
2018-09-13T22:10:22.603Z,8.93
2018-09-13T22:12:32.783Z,8.80
2018-09-13T22:14:43.628Z,8.25
2018-09-13T22:16:51.177Z,8.67
2018-09-13T22:18:57.979Z,7.62
2018-09-13T22:21:04.284Z,9.13
2018-09-13T22:23:09.155Z,8.80
2018-09-13T22:25:15.239Z,11.93
2018-09-13T22:27:24.250Z,9.07
2018-09-13T22:29:31.059Z,8.53
2018-09-13T22:31:39.133Z,8.10
2018-09-13T22:33:46.474Z,7.90
2018-09-13T22:35:54.490Z,8.10
2018-09-13T22:38:01.752Z,8.50
2018-09-13T22:40:09.928Z,8.73
2018-09-13T22:42:16.221Z,7.90
2018-09-13T22:44:22.904Z,8.57
2018-09-13T22:46:29.062Z,7.95
2018-09-13T22:48:38.072Z,9.23
2018-09-13T22:50:46.781Z,7.53
2018-09-13T22:52:53.262Z,8.03
2018-09-13T22:55:02.360Z,7.20
2018-09-13T22:57:11.179Z,7.03
2018-09-13T22:59:18.458Z,7.17
2018-09-13T23:01:25.859Z,7.77
2018-09-13T23:03:33.242Z,7.33
2018-09-13T23:05:38.696Z,6.67
2018-09-13T23:07:48.274Z,7.30
2018-09-13T23:09:56.005Z,6.55
2018-09-13T23:12:04.036Z,7.63
2018-09-13T23:14:15.994Z,7.37
2018-09-13T23:16:24.373Z,7.23
2018-09-13T23:18:34.871Z,6.83
2018-09-13T23:20:42.785Z,6.70
2018-09-13T23:22:51.896Z,6.15
2018-09-13T23:24:56.530Z,5.78
2018-09-13T23:27:05.370Z,6.00
2018-09-13T23:29:09.926Z,6.03
2018-09-13T23:31:14.380Z,6.22
2018-09-13T23:33:24.668Z,7.20
2018-09-13T23:35:30.399Z,6.30
2018-09-13T23:37:40.205Z,5.87
2018-09-13T23:39:46.910Z,5.78
2018-09-13T23:41:54.006Z,9.50
2018-09-13T23:43:58.972Z,6.33
2018-09-13T23:46:06.424Z,5.70
2018-09-13T23:48:15.922Z,4.97
2018-09-13T23:50:21.874Z,5.83
2018-09-13T23:52:29.870Z,7.53
2018-09-13T23:54:36.530Z,5.90
2018-09-13T23:56:44.600Z,5.70
2018-09-13T23:58:53.759Z,5.15
